createdAt,value
2018-12-31T00:01:21.448Z,17.97
2018-12-31T00:03:50.439Z,14.63
2018-12-31T00:06:19.382Z,17.67
2018-12-31T00:08:48.309Z,20.27
2018-12-31T00:11:17.257Z,17.07
2018-12-31T00:13:46.163Z,16.53
2018-12-31T00:16:14.987Z,19.87
2018-12-31T00:18:44.001Z,14.53
2018-12-31T00:21:12.886Z,15.20
2018-12-31T00:23:41.725Z,14.63
2018-12-31T00:26:10.588Z,13.97
2018-12-31T00:28:39.433Z,17.67
2018-12-31T00:31:08.398Z,13.90
2018-12-31T00:33:37.372Z,16.97
2018-12-31T00:36:06.213Z,16.37
2018-12-31T00:38:35.198Z,16.23
2018-12-31T00:41:04.258Z,18.30
2018-12-31T00:43:33.161Z,14.07
2018-12-31T00:46:02.359Z,15.77
2018-12-31T00:48:31.273Z,15.30
2018-12-31T00:51:00.179Z,14.43
2018-12-31T00:53:28.991Z,16.03
2018-12-31T00:55:57.977Z,14.40
2018-12-31T00:58:26.990Z,14.40
2018-12-31T01:00:55.880Z,15.07
2018-12-31T01:03:24.717Z,15.90
2018-12-31T01:05:53.554Z,19.07
2018-12-31T01:08:22.442Z,17.90
2018-12-31T01:10:51.262Z,17.90
2018-12-31T01:13:20.170Z,19.13
2018-12-31T01:15:49.019Z,18.33
2018-12-31T01:18:17.941Z,16.60
2018-12-31T01:20:46.846Z,16.53
2018-12-31T01:23:17.001Z,16.73
2018-12-31T01:25:45.948Z,15.93
2018-12-31T01:28:14.765Z,15.20
2018-12-31T01:30:43.693Z,16.33
2018-12-31T01:33:12.545Z,15.07
2018-12-31T01:35:41.477Z,17.33
2018-12-31T01:38:10.329Z,14.83
2018-12-31T01:40:39.472Z,14.90
2018-12-31T01:43:08.475Z,15.70
2018-12-31T01:45:37.347Z,15.23
2018-12-31T01:48:06.274Z,15.27
2018-12-31T01:50:35.104Z,15.40
2018-12-31T01:53:04.016Z,18.90
2018-12-31T01:55:32.978Z,17.00
2018-12-31T01:58:02.171Z,16.30
2018-12-31T02:00:31.724Z,14.27
2018-12-31T02:03:00.661Z,15.23
2018-12-31T02:05:29.614Z,15.13
2018-12-31T02:07:58.518Z,13.80
2018-12-31T02:10:27.339Z,13.47
2018-12-31T02:12:56.279Z,13.17
2018-12-31T02:15:25.299Z,11.43
2018-12-31T02:17:54.241Z,12.57
2018-12-31T02:20:23.161Z,11.93
2018-12-31T02:22:52.252Z,14.73
2018-12-31T02:25:21.238Z,12.70
2018-12-31T02:27:50.019Z,10.37
2018-12-31T02:30:19.175Z,11.37
2018-12-31T02:32:48.052Z,11.40
2018-12-31T02:35:17.248Z,11.23
2018-12-31T02:37:46.049Z,8.50
2018-12-31T02:40:14.864Z,9.40
2018-12-31T02:42:43.800Z,10.37
2018-12-31T02:45:12.627Z,10.77
2018-12-31T02:47:41.455Z,8.00
2018-12-31T02:50:10.450Z,8.50
2018-12-31T02:52:39.621Z,9.40
2018-12-31T02:55:08.697Z,8.10
2018-12-31T02:57:37.613Z,10.47
2018-12-31T03:00:06.733Z,10.53
2018-12-31T03:02:35.778Z,15.27
2018-12-31T03:05:04.934Z,11.83
2018-12-31T03:07:33.868Z,14.80
2018-12-31T03:10:02.831Z,13.13
2018-12-31T03:12:31.645Z,11.83
2018-12-31T03:15:00.782Z,14.10
2018-12-31T03:17:29.610Z,11.53
2018-12-31T03:19:58.599Z,11.17
2018-12-31T03:22:27.470Z,11.17
2018-12-31T03:24:56.586Z,9.83
2018-12-31T03:27:25.557Z,10.00
2018-12-31T03:29:54.505Z,12.47
2018-12-31T03:32:23.644Z,12.30
2018-12-31T03:34:52.537Z,10.67
2018-12-31T03:37:21.567Z,10.90
2018-12-31T03:39:50.465Z,10.90
2018-12-31T03:42:19.362Z,12.07
2018-12-31T03:44:48.189Z,11.07
2018-12-31T03:47:17.323Z,13.10
2018-12-31T03:49:46.252Z,12.43
2018-12-31T03:52:15.173Z,10.83
2018-12-31T03:54:44.204Z,13.37
2018-12-31T03:57:13.197Z,11.00
2018-12-31T03:59:42.157Z,9.70
2018-12-31T04:02:11.081Z,11.97
2018-12-31T04:04:40.139Z,9.93
2018-12-31T04:07:09.181Z,10.73
2018-12-31T04:09:38.149Z,11.07
2018-12-31T04:12:07.140Z,8.03
2018-12-31T04:14:36.050Z,7.97
2018-12-31T04:17:04.990Z,9.07
2018-12-31T04:19:34.015Z,9.23
2018-12-31T04:22:02.850Z,7.50
2018-12-31T04:24:31.689Z,9.43
2018-12-31T04:27:00.501Z,9.60
2018-12-31T04:29:29.459Z,8.03
2018-12-31T04:31:58.415Z,8.07
2018-12-31T04:34:27.337Z,7.73
2018-12-31T04:36:56.357Z,8.00
2018-12-31T04:39:25.593Z,8.73
2018-12-31T04:41:54.634Z,9.10
2018-12-31T04:44:23.480Z,8.73
2018-12-31T04:46:52.458Z,9.90
2018-12-31T04:49:21.388Z,11.07
2018-12-31T04:51:50.298Z,10.40
2018-12-31T04:54:19.157Z,11.97
2018-12-31T04:56:48.054Z,9.27
2018-12-31T04:59:16.996Z,11.47
2018-12-31T05:01:45.851Z,12.63
2018-12-31T05:04:14.683Z,9.20
2018-12-31T05:06:43.629Z,8.73
2018-12-31T05:09:12.466Z,8.97
2018-12-31T05:11:41.335Z,9.17
2018-12-31T05:14:10.179Z,10.57
2018-12-31T05:16:39.026Z,11.20
2018-12-31T05:19:07.896Z,12.17
2018-12-31T05:21:36.786Z,15.43
2018-12-31T05:24:05.742Z,11.70
2018-12-31T05:26:34.590Z,12.03
2018-12-31T05:29:03.465Z,16.60
2018-12-31T05:31:32.313Z,13.83
2018-12-31T05:34:01.277Z,17.40
2018-12-31T05:36:30.219Z,15.73
2018-12-31T05:38:59.085Z,19.20
2018-12-31T05:41:28.096Z,18.13
2018-12-31T05:43:57.325Z,16.70
2018-12-31T05:46:26.310Z,18.37
2018-12-31T05:48:55.144Z,20.53
2018-12-31T05:51:24.016Z,23.00
2018-12-31T05:53:53.067Z,20.43
2018-12-31T05:56:21.973Z,24.57
2018-12-31T05:58:50.910Z,24.93
2018-12-31T06:01:19.933Z,22.03
2018-12-31T06:03:48.881Z,21.87
2018-12-31T06:06:17.718Z,19.63
2018-12-31T06:08:46.574Z,27.13
2018-12-31T06:11:15.466Z,22.43
2018-12-31T06:13:44.290Z,21.93
2018-12-31T06:16:13.110Z,19.93
2018-12-31T06:18:41.951Z,19.43
2018-12-31T06:21:10.969Z,20.00
2018-12-31T06:23:39.818Z,21.50
2018-12-31T06:26:08.877Z,21.60
2018-12-31T06:28:37.733Z,22.40
2018-12-31T06:31:06.664Z,23.40
2018-12-31T06:33:35.506Z,23.57
2018-12-31T06:36:04.475Z,21.93
2018-12-31T06:38:33.325Z,19.60
2018-12-31T06:41:02.262Z,22.63
2018-12-31T06:43:31.294Z,25.00
2018-12-31T06:46:00.234Z,23.80
2018-12-31T06:48:29.308Z,19.43
2018-12-31T06:50:58.345Z,19.70
2018-12-31T06:53:27.193Z,22.40
2018-12-31T06:55:56.111Z,22.00
2018-12-31T06:58:25.502Z,20.77
2018-12-31T07:00:54.445Z,20.63
2018-12-31T07:03:23.538Z,21.40
2018-12-31T07:05:52.401Z,21.07
2018-12-31T07:08:21.287Z,21.97
2018-12-31T07:10:50.166Z,17.63
2018-12-31T07:13:19.033Z,20.77
2018-12-31T07:15:47.962Z,19.60
2018-12-31T07:18:18.629Z,21.63
2018-12-31T07:20:47.559Z,23.33
2018-12-31T07:23:16.397Z,22.17
2018-12-31T07:25:45.307Z,19.90
2018-12-31T07:28:14.131Z,22.20
2018-12-31T07:30:43.031Z,25.70
2018-12-31T07:33:11.923Z,27.43
2018-12-31T07:35:40.847Z,27.37
2018-12-31T07:38:09.723Z,25.03
2018-12-31T07:40:38.758Z,27.30
2018-12-31T07:43:07.663Z,31.53
2018-12-31T07:45:36.516Z,30.40
2018-12-31T07:48:05.418Z,28.47
2018-12-31T07:50:34.292Z,29.20
2018-12-31T07:53:03.214Z,29.40
2018-12-31T07:55:32.056Z,29.03
2018-12-31T07:58:00.969Z,26.93
2018-12-31T08:00:29.995Z,30.27
2018-12-31T08:02:58.918Z,29.97
2018-12-31T08:05:27.768Z,28.40
2018-12-31T08:07:56.594Z,31.40
2018-12-31T08:10:25.530Z,35.07
2018-12-31T08:12:54.449Z,34.67
2018-12-31T08:15:23.686Z,37.50
2018-12-31T08:17:52.611Z,38.43
2018-12-31T08:20:21.446Z,39.60
2018-12-31T08:22:50.330Z,40.77
2018-12-31T08:25:19.197Z,40.80
2018-12-31T08:27:48.074Z,39.47
2018-12-31T08:30:18.828Z,41.73
2018-12-31T08:32:47.681Z,40.67
2018-12-31T08:35:16.743Z,37.13
2018-12-31T08:37:45.639Z,40.40
2018-12-31T08:40:14.607Z,38.77
2018-12-31T08:42:43.666Z,39.43
2018-12-31T08:45:12.618Z,36.17
2018-12-31T08:47:41.491Z,41.07
2018-12-31T08:50:10.443Z,38.87
2018-12-31T08:52:39.568Z,42.23
2018-12-31T08:55:08.605Z,39.97
2018-12-31T08:57:37.583Z,43.40
2018-12-31T09:00:06.997Z,45.30
2018-12-31T09:02:35.931Z,44.00
2018-12-31T09:05:05.078Z,47.30
2018-12-31T09:07:34.006Z,46.03
2018-12-31T09:10:03.118Z,51.47
2018-12-31T09:12:31.942Z,51.20
2018-12-31T09:15:01.153Z,46.87
2018-12-31T09:17:30.126Z,53.33
2018-12-31T09:19:59.020Z,49.73
2018-12-31T09:22:28.008Z,46.00
2018-12-31T09:24:57.132Z,50.23
2018-12-31T09:27:26.027Z,51.30
2018-12-31T09:29:54.955Z,49.83
2018-12-31T09:32:24.041Z,49.17
2018-12-31T09:34:53.183Z,57.80
2018-12-31T09:37:22.237Z,53.10
2018-12-31T09:39:51.512Z,55.30
2018-12-31T09:42:20.538Z,59.03
2018-12-31T09:44:49.453Z,53.80
2018-12-31T09:47:18.613Z,52.77
2018-12-31T09:49:47.867Z,54.77
2018-12-31T09:52:16.883Z,53.57
2018-12-31T09:54:45.916Z,54.10
2018-12-31T09:57:14.864Z,57.40
2018-12-31T09:59:43.931Z,49.43
2018-12-31T10:02:13.119Z,58.73
2018-12-31T10:04:41.975Z,55.57
2018-12-31T10:07:11.058Z,58.87
2018-12-31T10:09:40.185Z,57.00
2018-12-31T10:12:09.111Z,61.63
2018-12-31T10:14:38.306Z,56.90
2018-12-31T10:17:07.303Z,58.60
2018-12-31T10:19:36.301Z,62.87
2018-12-31T10:22:05.159Z,57.37
2018-12-31T10:24:34.014Z,59.53
2018-12-31T10:27:03.547Z,59.30
2018-12-31T10:29:36.245Z,58.80
2018-12-31T10:32:03.067Z,67.43
2018-12-31T10:34:32.091Z,66.37
2018-12-31T10:37:01.039Z,61.97
2018-12-31T10:39:29.941Z,63.67
2018-12-31T10:41:58.900Z,63.00
2018-12-31T10:44:27.963Z,60.47
2018-12-31T10:46:56.875Z,55.63
2018-12-31T10:49:25.838Z,53.77
2018-12-31T10:51:55.389Z,62.37
2018-12-31T10:54:24.681Z,59.43
2018-12-31T10:56:53.766Z,61.63
2018-12-31T10:59:22.918Z,53.93
2018-12-31T11:01:52.187Z,60.77
2018-12-31T11:04:21.555Z,66.33
2018-12-31T11:06:50.589Z,58.97
2018-12-31T11:09:19.799Z,62.00
2018-12-31T11:11:49.105Z,59.33
2018-12-31T11:14:18.123Z,59.03
2018-12-31T11:16:47.116Z,64.33
2018-12-31T11:19:16.142Z,59.20
2018-12-31T11:21:45.274Z,69.23
2018-12-31T11:24:14.246Z,63.53
2018-12-31T11:26:43.248Z,57.67
2018-12-31T11:29:12.270Z,60.63
2018-12-31T11:31:41.466Z,65.77
2018-12-31T11:34:10.353Z,61.77
2018-12-31T11:36:39.560Z,59.10
2018-12-31T11:39:08.644Z,62.23
2018-12-31T11:41:37.581Z,64.00
2018-12-31T11:44:06.649Z,54.50
2018-12-31T11:46:35.578Z,60.57
2018-12-31T11:49:04.642Z,65.23
2018-12-31T11:51:33.974Z,65.23
2018-12-31T11:54:02.873Z,122.13
2018-12-31T11:56:31.697Z,97.23
2018-12-31T11:59:00.679Z,215.73
2018-12-31T12:01:29.805Z,61.00
2018-12-31T12:03:58.657Z,58.97
2018-12-31T12:06:27.551Z,59.70
2018-12-31T12:08:56.431Z,75.53
2018-12-31T12:11:25.425Z,64.60
2018-12-31T12:13:54.369Z,56.37
2018-12-31T12:16:23.308Z,60.77
2018-12-31T12:18:52.379Z,57.87
2018-12-31T12:21:21.602Z,65.77
2018-12-31T12:23:50.671Z,57.13
2018-12-31T12:26:19.538Z,58.43
2018-12-31T12:28:48.680Z,54.10
2018-12-31T12:31:17.987Z,65.33
2018-12-31T12:33:47.265Z,58.47
2018-12-31T12:36:16.209Z,53.20
2018-12-31T12:38:45.219Z,63.23
2018-12-31T12:41:14.034Z,61.20
2018-12-31T12:43:42.977Z,56.83
2018-12-31T12:46:12.164Z,57.83
2018-12-31T12:48:41.460Z,57.73
2018-12-31T12:51:10.478Z,60.80
2018-12-31T12:53:39.494Z,57.87
2018-12-31T12:56:08.412Z,55.33
2018-12-31T12:58:37.844Z,66.93
2018-12-31T13:01:06.853Z,63.43
2018-12-31T13:03:35.784Z,80.27
2018-12-31T13:06:04.716Z,69.47
2018-12-31T13:08:33.790Z,65.73
2018-12-31T13:11:03.282Z,56.37
2018-12-31T13:13:32.159Z,59.40
2018-12-31T13:16:01.202Z,57.27
2018-12-31T13:18:30.339Z,56.23
2018-12-31T13:20:59.302Z,53.70
2018-12-31T13:23:28.420Z,58.80
2018-12-31T13:25:57.703Z,54.43
2018-12-31T13:28:27.138Z,66.33
2018-12-31T13:30:56.140Z,52.60
2018-12-31T13:33:25.193Z,59.37
2018-12-31T13:35:54.014Z,54.97
2018-12-31T13:38:22.929Z,56.40
2018-12-31T13:40:51.962Z,53.27
2018-12-31T13:43:20.834Z,50.83
2018-12-31T13:45:49.715Z,55.73
2018-12-31T13:48:18.828Z,52.73
2018-12-31T13:50:47.705Z,49.63
2018-12-31T13:53:16.605Z,56.63
2018-12-31T13:55:45.674Z,58.87
2018-12-31T13:58:14.497Z,47.23
2018-12-31T14:00:43.520Z,54.23
2018-12-31T14:03:17.043Z,47.90
2018-12-31T14:05:43.098Z,53.83
2018-12-31T14:08:11.914Z,53.93
2018-12-31T14:10:41.006Z,45.50
2018-12-31T14:13:09.816Z,57.33
2018-12-31T14:15:38.688Z,53.33
2018-12-31T14:18:07.522Z,55.93
2018-12-31T14:20:36.420Z,54.63
2018-12-31T14:23:05.446Z,50.27
2018-12-31T14:25:34.293Z,54.77
2018-12-31T14:28:05.049Z,55.23
2018-12-31T14:30:34.035Z,44.93
2018-12-31T14:33:03.100Z,54.17
2018-12-31T14:35:32.062Z,49.13
2018-12-31T14:38:01.154Z,59.83
2018-12-31T14:40:30.109Z,52.33
2018-12-31T14:42:59.148Z,57.83
2018-12-31T14:45:28.133Z,55.47
2018-12-31T14:47:56.974Z,62.60
2018-12-31T14:50:25.865Z,62.10
2018-12-31T14:52:54.993Z,65.77
2018-12-31T14:55:23.979Z,56.47
2018-12-31T14:57:53.022Z,52.40
2018-12-31T15:00:22.011Z,53.67
2018-12-31T15:02:51.116Z,59.23
2018-12-31T15:05:19.967Z,55.53
2018-12-31T15:07:48.794Z,57.03
2018-12-31T15:10:17.847Z,55.10
2018-12-31T15:12:46.983Z,53.67
2018-12-31T15:15:15.965Z,50.17
2018-12-31T15:17:44.887Z,59.27
2018-12-31T15:20:13.918Z,54.33
2018-12-31T15:22:42.947Z,55.80
2018-12-31T15:25:11.774Z,52.57
2018-12-31T15:27:40.750Z,47.87
2018-12-31T15:30:09.885Z,48.47
2018-12-31T15:32:38.842Z,46.93
2018-12-31T15:35:08.062Z,55.40
2018-12-31T15:37:37.120Z,49.27
2018-12-31T15:40:07.363Z,60.67
2018-12-31T15:42:36.435Z,53.33
2018-12-31T15:45:05.987Z,52.00
2018-12-31T15:47:35.101Z,50.63
2018-12-31T15:50:04.310Z,57.17
2018-12-31T15:52:33.282Z,59.27
2018-12-31T15:55:02.442Z,61.23
2018-12-31T15:57:31.337Z,49.20
2018-12-31T16:00:00.327Z,42.30
2018-12-31T16:02:29.208Z,50.13
2018-12-31T16:04:58.225Z,50.30
2018-12-31T16:07:27.150Z,49.37
2018-12-31T16:09:56.011Z,53.90
2018-12-31T16:12:24.835Z,51.03
2018-12-31T16:14:53.843Z,56.23
2018-12-31T16:17:22.743Z,51.20
2018-12-31T16:19:51.730Z,54.80
2018-12-31T16:22:20.574Z,53.13
2018-12-31T16:24:49.590Z,56.73
2018-12-31T16:27:18.619Z,54.13
2018-12-31T16:29:47.628Z,63.57
2018-12-31T16:32:16.532Z,53.50
2018-12-31T16:34:45.523Z,55.00
2018-12-31T16:37:14.447Z,65.40
2018-12-31T16:39:43.677Z,60.90
2018-12-31T16:42:13.623Z,70.27
2018-12-31T16:44:42.485Z,68.30
2018-12-31T16:47:11.534Z,55.83
2018-12-31T16:49:40.508Z,55.90
2018-12-31T16:52:09.531Z,52.17
2018-12-31T16:54:38.442Z,57.80
2018-12-31T16:57:07.561Z,61.47
2018-12-31T16:59:36.622Z,56.70
2018-12-31T17:02:05.713Z,69.83
2018-12-31T17:04:34.617Z,54.97
2018-12-31T17:07:03.577Z,57.40
2018-12-31T17:09:32.501Z,51.57
2018-12-31T17:12:01.445Z,56.93
2018-12-31T17:14:30.492Z,48.33
2018-12-31T17:16:59.345Z,49.63
2018-12-31T17:19:28.607Z,53.47
2018-12-31T17:21:57.561Z,59.60
2018-12-31T17:24:26.434Z,55.77
2018-12-31T17:26:55.374Z,47.93
2018-12-31T17:29:24.297Z,53.50
2018-12-31T17:31:53.457Z,59.57
2018-12-31T17:34:22.404Z,46.07
2018-12-31T17:36:51.355Z,57.90
2018-12-31T17:39:21.434Z,44.13
2018-12-31T17:41:50.827Z,45.50
2018-12-31T17:44:20.157Z,43.80
2018-12-31T17:46:49.334Z,50.93
2018-12-31T17:49:18.393Z,43.97
2018-12-31T17:51:47.531Z,44.50
2018-12-31T17:54:16.600Z,51.13
2018-12-31T17:56:45.906Z,47.97
2018-12-31T17:59:14.810Z,43.10
2018-12-31T18:01:43.869Z,43.00
2018-12-31T18:04:12.786Z,42.63
2018-12-31T18:06:41.877Z,52.87
2018-12-31T18:09:10.978Z,53.83
2018-12-31T18:11:39.802Z,52.43
2018-12-31T18:14:08.782Z,51.27
2018-12-31T18:16:37.923Z,41.40
2018-12-31T18:19:06.814Z,47.10
2018-12-31T18:21:35.985Z,40.07
2018-12-31T18:24:04.923Z,38.80
2018-12-31T18:26:34.027Z,54.43
2018-12-31T18:29:03.026Z,53.70
2018-12-31T18:31:32.230Z,51.50
2018-12-31T18:34:01.243Z,50.23
2018-12-31T18:36:30.222Z,51.70
2018-12-31T18:39:02.638Z,51.93
2018-12-31T18:41:32.121Z,50.53
2018-12-31T18:44:01.302Z,51.93
2018-12-31T18:46:31.706Z,48.63
2018-12-31T18:49:00.792Z,42.70
2018-12-31T18:51:29.815Z,45.53
2018-12-31T18:54:02.303Z,50.57
2018-12-31T18:56:31.589Z,51.17
2018-12-31T18:59:01.071Z,56.73
2018-12-31T19:01:30.351Z,58.47
2018-12-31T19:04:05.293Z,51.13
2018-12-31T19:06:34.518Z,49.90
2018-12-31T19:09:04.844Z,49.23
2018-12-31T19:11:34.285Z,51.90
2018-12-31T19:14:03.984Z,47.27
2018-12-31T19:16:33.642Z,45.00
2018-12-31T19:19:03.171Z,50.00
2018-12-31T19:21:32.459Z,43.17
2018-12-31T19:24:23.800Z,42.93
2018-12-31T19:26:53.566Z,48.90
2018-12-31T19:29:22.912Z,53.23
2018-12-31T19:31:52.314Z,53.57
2018-12-31T19:34:21.716Z,51.57
2018-12-31T19:36:54.526Z,50.70
2018-12-31T19:39:23.805Z,56.33
2018-12-31T19:42:08.610Z,52.47
2018-12-31T19:44:40.072Z,51.90
2018-12-31T19:47:10.877Z,56.00
2018-12-31T19:49:40.646Z,57.50
2018-12-31T19:52:10.405Z,57.07
2018-12-31T19:54:39.848Z,52.97
2018-12-31T19:57:09.290Z,53.23
2018-12-31T19:59:38.755Z,46.67
2018-12-31T20:02:07.857Z,54.93
2018-12-31T20:04:37.300Z,54.80
2018-12-31T20:07:06.786Z,64.13
2018-12-31T20:09:36.069Z,66.00
2018-12-31T20:12:05.301Z,53.73
2018-12-31T20:14:34.455Z,53.53
2018-12-31T20:17:06.719Z,49.40
2018-12-31T20:19:39.219Z,51.83
2018-12-31T20:22:08.346Z,54.20
2018-12-31T20:24:37.508Z,59.60
2018-12-31T20:27:06.837Z,54.30
2018-12-31T20:29:36.401Z,59.53
2018-12-31T20:32:05.859Z,59.73
2018-12-31T20:34:35.025Z,67.07
2018-12-31T20:37:08.505Z,65.23
2018-12-31T20:39:38.491Z,68.57
2018-12-31T20:42:08.606Z,62.73
2018-12-31T20:44:40.605Z,73.67
2018-12-31T20:47:10.203Z,62.27
2018-12-31T20:50:13.366Z,62.50
2018-12-31T20:53:22.712Z,73.33
2018-12-31T20:55:52.655Z,61.17
2018-12-31T20:58:33.359Z,70.57
2018-12-31T21:01:03.063Z,61.87
2018-12-31T21:03:32.267Z,72.63
2018-12-31T21:06:01.631Z,62.40
2018-12-31T21:08:30.932Z,67.83
2018-12-31T21:11:06.680Z,84.63
2018-12-31T21:13:37.419Z,66.07
2018-12-31T21:16:07.125Z,66.50
2018-12-31T21:18:37.348Z,60.47
2018-12-31T21:21:09.619Z,62.67
2018-12-31T21:23:45.214Z,63.53
2018-12-31T21:26:15.525Z,69.17
2018-12-31T21:28:45.023Z,63.50
2018-12-31T21:31:53.947Z,60.17
2018-12-31T21:34:23.291Z,66.70
2018-12-31T21:36:53.098Z,62.47
2018-12-31T21:39:23.898Z,66.70
2018-12-31T21:41:53.235Z,68.40
2018-12-31T21:44:22.666Z,61.70
2018-12-31T21:47:47.212Z,62.77
2018-12-31T21:50:26.895Z,65.40
2018-12-31T21:53:55.066Z,56.17
2018-12-31T21:56:43.904Z,55.07
2018-12-31T21:59:13.551Z,60.90
2018-12-31T22:01:46.991Z,56.90
2018-12-31T22:07:26.738Z,57.37
2018-12-31T22:16:42.671Z,54.87
2018-12-31T22:58:50.205Z,81.00
2018-12-31T23:43:53.660Z,119.17
2018-12-31T23:50:42.025Z,140.80
